Time;durP1;ratioP1;P1;durP2;ratioP2;P2;SDS_P1;SDS_P2;PMS_P1;PMS_P2;Temp;Humidity;BMP_temperature;BMP_pressure;BME280_temperature;BME280_humidity;BME280_pressure;Samples;Min_cycle;Max_cycle;Signal;HPM_P1;HPM_P2
2022/01/01 00:02:20;;;;;;;40.97;22.10;;;;;;;11.75;93.23;102260.59;5027335;28;20026;-61
2022/01/01 00:04:47;;;;;;;37.33;21.55;;;;;;;11.74;93.26;102270.38;5029797;28;20099;-61
2022/01/01 00:07:13;;;;;;;36.40;19.02;;;;;;;11.75;92.94;102268.56;5026014;28;20029;-61
2022/01/01 00:09:38;;;;;;;36.90;17.55;;;;;;;11.74;93.20;102274.88;5028703;28;20529;-62
2022/01/01 00:12:05;;;;;;;38.55;18.60;;;;;;;11.81;92.66;102287.50;5027353;28;20083;-61
2022/01/01 00:14:30;;;;;;;32.20;15.68;;;;;;;11.80;93.18;102282.31;5024862;28;20037;-60
2022/01/01 00:16:55;;;;;;;36.15;16.17;;;;;;;11.89;92.36;102278.81;5025988;28;20497;-61
2022/01/01 00:19:21;;;;;;;34.78;14.80;;;;;;;11.84;92.56;102286.34;5025771;28;20029;-61
2022/01/01 00:21:46;;;;;;;31.50;14.95;;;;;;;11.91;92.05;102286.66;5024134;28;20029;-61
2022/01/01 00:24:11;;;;;;;34.20;14.63;;;;;;;11.83;92.63;102285.53;5027768;28;20506;-61
2022/01/01 00:26:37;;;;;;;35.38;15.48;;;;;;;11.82;92.61;102283.00;5026763;28;20095;-61
2022/01/01 00:29:03;;;;;;;39.97;19.67;;;;;;;11.82;92.85;102288.31;5029246;28;20025;-61
2022/01/01 00:31:29;;;;;;;37.60;16.33;;;;;;;11.77;93.03;102291.38;5025141;28;20048;-61
2022/01/01 00:33:55;;;;;;;36.42;16.38;;;;;;;11.82;93.11;102293.63;5026645;28;20025;-61
2022/01/01 00:36:20;;;;;;;30.77;12.93;;;;;;;11.80;92.74;102287.63;5024353;28;20509;-60
2022/01/01 00:38:45;;;;;;;37.92;16.58;;;;;;;11.76;92.97;102291.50;5027084;28;20037;-61
2022/01/01 00:41:10;;;;;;;29.45;13.23;;;;;;;11.79;93.19;102288.59;5024778;28;20402;-61
2022/01/01 00:43:36;;;;;;;35.33;15.23;;;;;;;11.78;93.20;102286.91;5027126;28;20057;-61
2022/01/01 00:46:01;;;;;;;36.65;12.85;;;;;;;11.78;92.81;102276.25;5028489;28;20037;-60
2022/01/01 00:48:26;;;;;;;32.42;12.68;;;;;;;11.77;93.22;102274.59;5028765;28;20060;-61
2022/01/01 00:50:52;;;;;;;36.08;14.00;;;;;;;11.80;92.55;102277.00;5026115;28;20092;-60
2022/01/01 00:53:17;;;;;;;33.83;13.43;;;;;;;11.74;93.11;102274.88;5025179;28;20042;-61
2022/01/01 00:55:42;;;;;;;41.28;19.38;;;;;;;11.69;93.75;102267.28;5024834;28;20124;-61
2022/01/01 00:58:08;;;;;;;32.92;13.48;;;;;;;11.66;93.50;102279.03;5023169;28;21109;-60
2022/01/01 01:00:33;;;;;;;33.25;13.30;;;;;;;11.68;93.69;102282.41;5027256;28;20033;-61
2022/01/01 01:02:58;;;;;;;31.52;12.38;;;;;;;11.73;93.01;102289.13;5028373;28;20464;-58
2022/01/01 01:05:24;;;;;;;32.63;12.57;;;;;;;11.67;93.65;102282.53;5029159;28;20033;-61
2022/01/01 01:07:49;;;;;;;32.17;12.68;;;;;;;11.67;93.13;102280.72;5029997;28;20091;-61
2022/01/01 01:10:15;;;;;;;29.40;12.07;;;;;;;11.67;93.05;102286.03;5033478;28;20125;-61
2022/01/01 01:12:44;;;;;;;31.20;13.15;;;;;;;11.62;93.53;102277.63;5032477;28;20095;-61
2022/01/01 01:15:17;;;;;;;33.20;13.90;;;;;;;11.59;94.07;102280.53;5032383;28;20458;-61
2022/01/01 01:17:47;;;;;;;33.88;14.02;;;;;;;11.61;93.69;102286.56;5034494;28;20470;-60
2022/01/01 01:20:13;;;;;;;32.10;12.88;;;;;;;11.67;93.20;102286.03;5033212;28;20402;-61
2022/01/01 01:22:38;;;;;;;35.90;13.70;;;;;;;11.64;93.73;102280.16;5032835;28;20108;-62
2022/01/01 01:25:04;;;;;;;35.45;13.75;;;;;;;11.65;93.58;102281.81;5029184;28;20025;-62
2022/01/01 01:27:30;;;;;;;31.67;13.38;;;;;;;11.65;93.22;102282.66;5033565;28;20414;-62
2022/01/01 01:29:58;;;;;;;33.67;13.02;;;;;;;11.62;93.51;102288.25;5033787;28;20105;-62
2022/01/01 01:32:23;;;;;;;37.58;13.43;;;;;;;11.63;94.07;102281.94;5034427;28;20061;-62
2022/01/01 01:34:49;;;;;;;31.25;13.10;;;;;;;11.62;93.91;102287.38;5031767;28;20068;-62
2022/01/01 01:37:14;;;;;;;32.80;12.77;;;;;;;11.61;93.95;102289.22;5033728;28;20083;-62
2022/01/01 01:39:39;;;;;;;33.60;13.30;;;;;;;11.61;94.35;102291.88;5034097;28;20022;-62
2022/01/01 01:42:05;;;;;;;31.42;12.60;;;;;;;11.59;94.62;102292.97;5033173;28;20083;-62
2022/01/01 01:44:34;;;;;;;34.38;12.55;;;;;;;11.54;94.21;102296.00;5033795;28;20029;-62
2022/01/01 01:47:13;;;;;;;30.15;12.85;;;;;;;11.57;94.62;102306.41;5033502;28;20037;-62
2022/01/01 01:49:38;;;;;;;33.65;12.95;;;;;;;11.58;95.05;102308.06;5033922;28;20099;-62
2022/01/01 01:52:03;;;;;;;33.55;12.50;;;;;;;11.59;95.17;102307.09;5033139;28;20018;-62
2022/01/01 01:54:29;;;;;;;28.73;11.80;;;;;;;11.59;94.94;102306.28;5032601;28;20035;-62
2022/01/01 01:56:54;;;;;;;32.42;12.80;;;;;;;11.60;95.22;102310.59;5033422;28;20108;-62
2022/01/01 01:59:21;;;;;;;32.80;12.35;;;;;;;11.60;94.88;102311.44;5032555;28;20048;-62
2022/01/01 02:01:46;;;;;;;31.08;12.82;;;;;;;11.59;95.13;102309.75;5032906;28;20034;-63
2022/01/01 02:04:12;;;;;;;35.45;13.05;;;;;;;11.59;95.25;102309.75;5033242;28;20036;-62
2022/01/01 02:06:39;;;;;;;33.85;12.73;;;;;;;11.58;95.00;102308.06;5032733;28;20075;-62
2022/01/01 02:09:04;;;;;;;35.42;13.10;;;;;;;11.57;95.26;102301.09;5032983;28;20057;-62
2022/01/01 02:11:30;;;;;;;31.10;12.73;;;;;;;11.57;95.53;102314.38;5032419;28;20060;-62
2022/01/01 02:18:53;;;;;;;29.48;12.70;;;;;;;11.56;95.06;102323.31;5033234;28;20073;-62
2022/01/01 02:21:20;;;;;;;30.92;13.57;;;;;;;11.56;95.57;102310.03;5032596;28;20037;-62
2022/01/01 02:23:46;;;;;;;31.80;13.93;;;;;;;11.57;95.36;102298.41;5032995;28;20026;-62
2022/01/01 02:26:15;;;;;;;29.88;13.65;;;;;;;11.56;95.51;102304.72;5032714;28;20033;-62
2022/01/01 02:28:47;;;;;;;28.05;14.05;;;;;;;11.56;95.25;102302.06;5033212;28;20698;-62
2022/01/01 02:31:14;;;;;;;29.25;13.63;;;;;;;11.64;94.50;102301.41;5032058;28;20510;-62
2022/01/01 02:33:42;;;;;;;28.42;13.25;;;;;;;11.59;95.29;102293.81;5031092;28;20109;-62
2022/01/01 02:36:08;;;;;;;28.05;13.57;;;;;;;11.64;94.54;102302.22;5032340;28;20041;-62
2022/01/01 02:38:34;;;;;;;31.02;14.50;;;;;;;11.64;94.66;102306.72;5032366;28;20515;-62
2022/01/01 02:40:59;;;;;;;28.50;13.57;;;;;;;11.65;95.03;102298.59;5032246;28;20032;-62
2022/01/01 02:43:25;;;;;;;32.85;13.68;;;;;;;11.64;94.63;102302.22;5032605;28;20475;-62
2022/01/01 02:45:51;;;;;;;26.67;13.18;;;;;;;11.64;94.21;102304.88;5030588;28;20034;-62
2022/01/01 02:48:17;;;;;;;31.52;14.23;;;;;;;11.62;94.97;102301.53;5030796;28;20061;-63
2022/01/01 02:50:43;;;;;;;31.40;14.48;;;;;;;11.61;94.76;102297.19;5031567;28;20056;-62
2022/01/01 02:53:16;;;;;;;29.25;14.57;;;;;;;11.60;94.74;102292.00;5029134;28;20041;-62
2022/01/01 02:55:42;;;;;;;32.03;15.45;;;;;;;11.59;94.83;102291.16;5030372;28;20021;-62
2022/01/01 02:58:09;;;;;;;29.13;14.55;;;;;;;11.59;95.02;102283.19;5030566;28;20095;-62
2022/01/01 03:00:35;;;;;;;33.03;14.35;;;;;;;11.58;94.41;102270.88;5029411;28;20033;-62
2022/01/01 03:03:00;;;;;;;28.75;14.52;;;;;;;11.58;94.76;102270.88;5030253;28;20037;-62
2022/01/01 03:05:27;;;;;;;28.52;13.77;;;;;;;11.59;94.78;102272.56;5031484;28;20045;-62
2022/01/01 03:07:52;;;;;;;30.70;14.52;;;;;;;11.57;94.28;102269.19;5031737;28;20018;-62
2022/01/01 03:10:18;;;;;;;30.38;15.18;;;;;;;11.58;94.28;102276.19;5031354;28;20026;-62
2022/01/01 03:12:43;;;;;;;29.13;14.93;;;;;;;11.56;94.59;102278.16;5031608;28;20013;-62
2022/01/01 03:15:08;;;;;;;28.40;14.43;;;;;;;11.57;94.74;102278.03;5030819;28;20144;-62
2022/01/01 03:17:34;;;;;;;28.30;13.93;;;;;;;11.56;94.36;102272.84;5031998;28;20033;-62
2022/01/01 03:19:59;;;;;;;29.60;13.98;;;;;;;11.57;94.74;102274.50;5031331;28;20061;-62
2022/01/01 03:22:24;;;;;;;27.88;14.73;;;;;;;11.58;94.48;102281.50;5030650;28;20041;-62
2022/01/01 03:24:50;;;;;;;28.63;14.07;;;;;;;11.57;94.06;102274.50;5031963;28;20037;-62
2022/01/01 03:27:15;;;;;;;27.52;14.30;;;;;;;11.56;94.35;102272.84;5031774;28;20421;-62
2022/01/01 03:29:41;;;;;;;29.58;14.77;;;;;;;11.55;94.70;102261.34;5031864;28;20078;-62
2022/01/01 03:32:06;;;;;;;29.42;14.18;;;;;;;11.56;94.62;102275.50;5031557;28;20022;-62
2022/01/01 03:34:32;;;;;;;25.55;13.52;;;;;;;11.56;94.38;102256.91;5030962;28;20057;-62
2022/01/01 03:36:57;;;;;;;26.83;13.07;;;;;;;11.57;94.19;102263.88;5031981;28;20037;-62
2022/01/01 03:39:22;;;;;;;29.42;13.38;;;;;;;11.57;94.51;102263.88;5027572;28;20042;-62
2022/01/01 03:41:49;;;;;;;27.50;13.13;;;;;;;11.57;94.30;102266.53;5031077;28;20109;-62
2022/01/01 03:44:14;;;;;;;24.98;12.70;;;;;;;11.57;93.93;102269.19;5031424;28;20029;-62
2022/01/01 03:46:39;;;;;;;27.45;13.00;;;;;;;11.55;93.95;102268.50;5032146;28;20025;-62
2022/01/01 03:49:04;;;;;;;25.73;11.90;;;;;;;11.53;93.76;102257.16;5031295;28;20374;-62
2022/01/01 03:51:30;;;;;;;27.17;12.30;;;;;;;11.53;93.68;102259.81;5030868;28;20113;-62
2022/01/01 03:53:55;;;;;;;28.60;12.10;;;;;;;11.55;93.60;102260.53;5031106;28;20490;-62
2022/01/01 03:56:20;;;;;;;24.25;11.90;;;;;;;11.54;93.54;102259.69;5031510;28;20028;-62
2022/01/01 03:58:45;;;;;;;26.42;11.57;;;;;;;11.54;93.37;102259.69;5031486;28;20068;-62
2022/01/01 04:01:11;;;;;;;23.88;10.48;;;;;;;11.55;93.30;102255.22;5031151;28;20498;-62
2022/01/01 04:03:36;;;;;;;23.20;10.68;;;;;;;11.58;92.76;102260.25;5031082;28;20029;-62
2022/01/01 04:06:01;;;;;;;23.85;10.13;;;;;;;11.58;92.96;102254.94;5031554;28;20037;-62
2022/01/01 04:08:29;;;;;;;22.45;9.82;;;;;;;11.65;92.14;102265.88;5031439;28;20033;-62
2022/01/01 04:10:55;;;;;;;26.08;10.23;;;;;;;11.68;91.60;102263.78;5030867;28;20088;-62
2022/01/01 04:13:20;;;;;;;21.13;10.32;;;;;;;11.65;91.85;102264.03;5031307;28;20060;-62
2022/01/01 04:15:45;;;;;;;20.80;9.77;;;;;;;11.62;92.11;102258.16;5031522;28;20017;-62
2022/01/01 04:18:12;;;;;;;24.48;9.68;;;;;;;11.67;91.32;102261.25;5031415;28;20104;-62
2022/01/01 04:20:39;;;;;;;20.27;8.93;;;;;;;11.62;91.92;102261.66;5030607;28;20541;-62
2022/01/01 04:23:09;;;;;;;18.05;8.50;;;;;;;11.64;92.01;102253.56;5030745;28;20514;-62
2022/01/01 04:25:36;;;;;;;22.77;8.75;;;;;;;11.63;91.41;102258.03;5031424;28;20037;-62
2022/01/01 04:28:01;;;;;;;18.50;8.23;;;;;;;11.63;91.57;102252.72;5031555;28;20022;-62
2022/01/01 04:30:29;;;;;;;25.05;8.90;;;;;;;11.66;91.23;102252.47;5030835;28;20030;-62
2022/01/01 04:32:55;;;;;;;22.58;8.73;;;;;;;11.67;90.91;102262.13;5030229;28;20049;-62
2022/01/01 04:35:20;;;;;;;20.35;8.70;;;;;;;11.68;91.04;102263.78;5031800;28;20731;-62
2022/01/01 04:37:45;;;;;;;20.70;8.20;;;;;;;11.73;90.60;102259.91;5031263;28;20136;-63
2022/01/01 04:40:11;;;;;;;19.20;8.20;;;;;;;11.76;90.31;102272.91;5031186;28;20022;-62
2022/01/01 04:42:36;;;;;;;21.15;8.60;;;;;;;11.71;90.62;102265.34;5030709;28;20076;-62
2022/01/01 04:45:02;;;;;;;20.30;8.40;;;;;;;11.73;90.30;102267.88;5030995;28;20030;-62
2022/01/01 04:47:28;;;;;;;18.98;8.90;;;;;;;11.71;90.42;102271.47;5031464;28;20056;-62
2022/01/01 04:49:53;;;;;;;22.00;8.73;;;;;;;11.71;90.29;102279.47;5030864;28;20429;-62
2022/01/01 04:52:19;;;;;;;19.50;8.30;;;;;;;11.71;90.94;102281.28;5029318;28;20120;-62
2022/01/01 04:54:45;;;;;;;20.77;9.07;;;;;;;11.76;90.06;102283.53;5030867;28;20073;-62
2022/01/01 04:57:11;;;;;;;21.42;8.98;;;;;;;11.74;90.24;102285.50;5033525;28;20352;-62
2022/01/01 04:59:38;;;;;;;19.92;8.57;;;;;;;11.71;89.99;102283.94;5034675;28;20048;-62
2022/01/01 05:02:04;;;;;;;22.60;8.63;;;;;;;11.73;89.82;102278.50;5030339;28;20164;-62
2022/01/01 05:04:29;;;;;;;20.80;8.10;;;;;;;11.71;90.31;102282.13;5023896;28;20033;-62
2022/01/01 05:06:55;;;;;;;19.75;8.57;;;;;;;11.71;90.20;102281.28;5033550;28;20036;-59
2022/01/01 05:09:20;;;;;;;20.73;8.55;;;;;;;11.79;89.33;102288.59;5034148;28;20068;-59
2022/01/01 05:11:47;;;;;;;20.23;8.13;;;;;;;11.72;90.00;102288.28;5033645;28;20124;-61
2022/01/01 05:14:13;;;;;;;21.98;8.68;;;;;;;11.71;89.87;102292.75;5033794;28;20046;-61
2022/01/01 05:16:40;;;;;;;19.85;8.60;;;;;;;11.70;89.96;102290.25;5034564;28;20525;-61
2022/01/01 05:19:06;;;;;;;20.25;8.88;;;;;;;11.73;89.39;102289.13;5028294;28;20072;-60
2022/01/01 05:21:33;;;;;;;22.88;8.88;;;;;;;11.76;89.28;102299.47;5029081;28;20040;-61
2022/01/01 05:23:59;;;;;;;23.23;8.48;;;;;;;11.69;90.13;102300.03;5027817;28;20038;-61
2022/01/01 05:26:25;;;;;;;19.17;8.70;;;;;;;11.70;89.71;102301.69;5023813;28;20025;-61
2022/01/01 05:28:50;;;;;;;20.42;8.35;;;;;;;11.75;89.36;102289.84;5028092;28;20030;-61
2022/01/01 05:31:17;;;;;;;21.35;8.13;;;;;;;11.68;89.88;102302.81;5030171;28;20117;-61
2022/01/01 05:33:42;;;;;;;19.67;8.38;;;;;;;11.66;89.72;102299.44;5025176;28;20128;-61
2022/01/01 05:36:07;;;;;;;20.02;8.70;;;;;;;11.65;89.75;102295.94;5028055;28;20120;-61
2022/01/01 05:38:32;;;;;;;19.48;8.35;;;;;;;11.64;89.83;102296.91;5028248;28;20033;-61
2022/01/01 05:40:58;;;;;;;16.33;8.05;;;;;;;11.62;89.65;102293.56;5029775;28;20108;-61
2022/01/01 05:43:23;;;;;;;20.05;8.23;;;;;;;11.62;90.01;102285.59;5023442;28;20076;-61
2022/01/01 05:45:49;;;;;;;19.75;8.02;;;;;;;11.66;89.33;102294.97;5027250;28;20042;-61
2022/01/01 05:48:15;;;;;;;18.48;8.05;;;;;;;11.64;89.14;102293.44;5028447;28;20021;-61
2022/01/01 05:50:40;;;;;;;21.00;8.32;;;;;;;11.63;89.11;102295.22;5027568;28;20032;-61
2022/01/01 05:53:06;;;;;;;17.98;7.70;;;;;;;11.63;89.61;102284.59;5026695;28;20491;-61
2022/01/01 05:55:31;;;;;;;19.85;8.02;;;;;;;11.63;89.34;102289.06;5024379;28;20052;-61
2022/01/01 05:57:56;;;;;;;21.27;8.25;;;;;;;11.60;89.28;102287.50;5024847;28;20120;-61
2022/01/01 06:00:22;;;;;;;19.80;8.35;;;;;;;11.59;89.31;102288.50;5027693;28;20364;-61
2022/01/01 06:02:47;;;;;;;19.58;7.93;;;;;;;11.60;89.57;102284.84;5026612;28;20046;-61
2022/01/01 06:05:12;;;;;;;19.58;8.18;;;;;;;11.56;88.93;102284.28;5024677;28;20414;-61
2022/01/01 06:07:38;;;;;;;18.75;8.18;;;;;;;11.61;89.12;102285.72;5023057;28;20033;-61
2022/01/01 06:10:05;;;;;;;17.35;6.95;;;;;;;11.56;89.59;102280.81;5024663;28;20096;-61
2022/01/01 06:12:30;;;;;;;19.88;7.38;;;;;;;11.55;89.01;102276.47;5025072;28;20041;-61
2022/01/01 06:14:55;;;;;;;19.30;7.40;;;;;;;11.55;89.27;102265.84;5026386;28;20489;-61
2022/01/01 06:17:20;;;;;;;18.45;6.88;;;;;;;11.51;89.12;102264.41;5022098;28;20026;-61
2022/01/01 06:19:46;;;;;;;16.20;6.85;;;;;;;11.48;89.41;102275.28;5028545;28;20374;-61
2022/01/01 06:22:13;;;;;;;18.63;7.50;;;;;;;11.44;89.74;102259.63;5023362;28;20033;-61
2022/01/01 06:24:38;;;;;;;18.05;7.05;;;;;;;11.43;89.04;102257.97;5028117;28;20565;-60
2022/01/01 06:27:03;;;;;;;17.52;7.63;;;;;;;11.40;88.74;102266.16;5023590;28;20080;-61
2022/01/01 06:29:29;;;;;;;22.02;7.45;;;;;;;11.38;89.16;102270.78;5027094;28;20056;-61
2022/01/01 06:31:54;;;;;;;18.33;6.82;;;;;;;11.34;88.84;102274.66;5024415;28;20045;-60
2022/01/01 06:34:19;;;;;;;16.88;7.10;;;;;;;11.32;89.75;102276.63;5023861;28;20044;-57
2022/01/01 06:36:44;;;;;;;17.83;7.10;;;;;;;11.30;89.30;102284.72;5028554;28;20030;-57
2022/01/01 06:39:10;;;;;;;18.85;7.20;;;;;;;11.28;88.97;102280.50;5026443;28;20030;-61
2022/01/01 06:41:35;;;;;;;20.73;6.82;;;;;;;11.27;89.55;102278.81;5027183;28;20087;-60
2022/01/01 06:44:00;;;;;;;16.25;6.40;;;;;;;11.25;89.10;102283.44;5024239;28;20029;-61
2022/01/01 06:46:26;;;;;;;17.98;7.28;;;;;;;11.21;89.17;102285.50;5025736;28;20387;-61
2022/01/01 06:48:51;;;;;;;17.05;6.70;;;;;;;11.19;89.61;102287.44;5026900;28;21191;-53
2022/01/01 06:51:16;;;;;;;16.92;6.45;;;;;;;11.19;89.41;102282.13;5025515;28;20506;-56
2022/01/01 06:53:41;;;;;;;19.98;6.45;;;;;;;11.17;89.01;102276.94;5027331;28;20037;-54
2022/01/01 06:56:07;;;;;;;13.13;6.10;;;;;;;11.16;89.46;102283.22;5024674;28;20026;-55
2022/01/01 06:58:34;;;;;;;15.90;6.57;;;;;;;11.15;88.86;102286.03;5021842;28;20021;-53
2022/01/01 07:00:59;;;;;;;20.55;6.30;;;;;;;11.16;89.11;102293.84;5026921;28;20123;-55
2022/01/01 07:03:24;;;;;;;18.60;6.00;;;;;;;11.17;89.23;102295.53;5022439;28;20112;-54
2022/01/01 07:05:50;;;;;;;18.58;6.18;;;;;;;11.16;88.97;102293.03;5022621;28;20064;-51
2022/01/01 07:08:15;;;;;;;18.67;6.20;;;;;;;11.17;89.33;102306.16;5022694;28;20025;-55
2022/01/01 07:10:44;;;;;;;15.30;5.88;;;;;;;11.15;89.31;102300.13;5022045;28;20158;-55
2022/01/01 07:13:09;;;;;;;14.43;5.95;;;;;;;11.14;89.59;102308.22;5026209;28;20410;-55
2022/01/01 07:15:34;;;;;;;13.93;5.70;;;;;;;11.16;88.85;102314.25;5020903;28;20033;-54
2022/01/01 07:18:00;;;;;;;13.43;6.03;;;;;;;11.19;88.39;102321.13;5025366;28;20040;-54
2022/01/01 07:20:25;;;;;;;15.63;6.10;;;;;;;11.15;88.92;102308.09;5022299;28;20037;-54
2022/01/01 07:22:50;;;;;;;15.85;5.68;;;;;;;11.15;88.89;102301.97;5022321;28;20434;-53
2022/01/01 07:25:15;;;;;;;19.45;6.00;;;;;;;11.16;88.48;102298.34;5020502;28;20045;-55
2022/01/01 07:27:41;;;;;;;16.17;5.70;;;;;;;11.14;88.72;102301.09;5023043;28;20029;-56
2022/01/01 07:30:08;;;;;;;15.88;6.05;;;;;;;11.13;88.41;102312.69;5024533;28;20033;-55
2022/01/01 07:32:37;;;;;;;16.63;6.10;;;;;;;11.11;88.33;102306.66;5021988;28;20486;-54
2022/01/01 07:35:03;;;;;;;16.33;6.05;;;;;;;11.14;88.97;102319.69;5023777;28;20088;-54
2022/01/01 07:37:28;;;;;;;13.07;5.80;;;;;;;11.11;89.12;102317.28;5020726;28;20483;-55
2022/01/01 07:39:53;;;;;;;15.20;6.10;;;;;;;11.13;89.19;102325.97;5023307;28;20028;-54
2022/01/01 07:42:19;;;;;;;14.43;5.90;;;;;;;11.14;88.82;102326.81;5023674;28;20029;-55
2022/01/01 07:44:44;;;;;;;16.92;5.97;;;;;;;11.12;88.86;102324.31;5024045;28;20033;-54
2022/01/01 07:47:09;;;;;;;16.50;6.25;;;;;;;11.11;89.18;102332.38;5022015;28;20395;-55
2022/01/01 07:49:35;;;;;;;16.63;5.63;;;;;;;11.12;88.92;102332.25;5021815;28;20056;-54
2022/01/01 07:52:00;;;;;;;14.07;5.60;;;;;;;11.12;88.43;102329.59;5025501;28;20017;-54
2022/01/01 07:54:25;;;;;;;14.77;5.85;;;;;;;11.10;88.43;102331.53;5022176;28;20396;-56
2022/01/01 07:56:50;;;;;;;16.98;6.35;;;;;;;11.10;88.58;102336.84;5019884;28;20156;-56
2022/01/01 07:59:16;;;;;;;16.98;5.88;;;;;;;11.10;88.76;102331.53;5021338;28;20034;-57
2022/01/01 08:01:43;;;;;;;14.07;5.80;;;;;;;11.12;88.32;102334.91;5023621;28;20025;-56
2022/01/01 08:04:09;;;;;;;14.00;5.85;;;;;;;11.10;88.33;102331.53;5022109;28;20022;-57
2022/01/01 08:06:34;;;;;;;15.82;5.55;;;;;;;11.12;88.88;102334.91;5023693;28;20029;-63
2022/01/01 08:08:59;;;;;;;18.80;6.13;;;;;;;11.13;88.83;102341.06;5022205;28;20017;-62
2022/01/01 08:11:25;;;;;;;13.50;5.63;;;;;;;11.13;87.92;102336.59;5022941;28;20050;-63
2022/01/01 08:13:53;;;;;;;18.38;6.35;;;;;;;11.16;87.64;102336.31;5023020;28;20501;-63
2022/01/01 08:16:19;;;;;;;11.77;5.70;;;;;;;11.13;88.11;102331.28;5019842;28;20427;-63
2022/01/01 08:18:44;;;;;;;14.38;5.82;;;;;;;11.15;88.01;102345.25;5019813;28;20029;-63
2022/01/01 08:21:09;;;;;;;16.35;5.80;;;;;;;11.15;88.62;102344.44;5026891;28;20037;-63
2022/01/01 08:23:34;;;;;;;15.15;6.00;;;;;;;11.16;88.19;102338.16;5026343;28;20506;-63
2022/01/01 08:26:00;;;;;;;14.93;5.88;;;;;;;11.15;88.04;102342.63;5021759;28;20026;-63
2022/01/01 08:28:26;;;;;;;17.70;5.90;;;;;;;11.19;87.96;102345.03;5020814;28;20029;-63
2022/01/01 08:30:51;;;;;;;13.40;6.05;;;;;;;11.19;87.99;102345.84;5019834;28;20021;-63
2022/01/01 08:33:16;;;;;;;16.45;6.25;;;;;;;11.21;87.63;102353.69;5023971;28;20079;-63
2022/01/01 08:35:42;;;;;;;15.18;5.90;;;;;;;11.21;87.65;102343.06;5028004;28;20391;-63
2022/01/01 08:38:07;;;;;;;19.48;6.65;;;;;;;11.17;87.65;102338.00;5025405;28;20043;-63
2022/01/01 08:40:33;;;;;;;16.70;6.35;;;;;;;11.16;87.99;102335.50;5024825;28;20025;-63
2022/01/01 08:42:58;;;;;;;15.85;6.30;;;;;;;11.16;87.63;102341.63;5024271;28;20107;-63
2022/01/01 08:45:24;;;;;;;17.10;7.07;;;;;;;11.16;87.74;102336.31;5027440;28;20091;-63
2022/01/01 08:47:50;;;;;;;17.52;6.78;;;;;;;11.13;88.07;102339.25;5025325;28;20025;-63
2022/01/01 08:50:16;;;;;;;17.90;6.93;;;;;;;11.11;87.89;102349.13;5023543;28;20041;-62
2022/01/01 08:52:43;;;;;;;18.90;6.75;;;;;;;11.11;88.12;102354.44;5027489;28;20390;-63
2022/01/01 08:55:08;;;;;;;17.15;6.97;;;;;;;11.12;88.26;102355.31;5023493;28;20034;-63
2022/01/01 08:57:34;;;;;;;17.77;6.88;;;;;;;11.11;88.13;102349.13;5028809;28;20028;-63
2022/01/01 09:00:01;;;;;;;18.42;6.70;;;;;;;11.10;88.31;102352.78;5024181;28;20036;-63
2022/01/01 09:02:26;;;;;;;18.48;7.10;;;;;;;11.10;87.53;102336.84;5024945;28;20034;-63
2022/01/01 09:04:52;;;;;;;14.95;7.05;;;;;;;11.09;87.85;102334.31;5021681;28;20065;-63
2022/01/01 09:07:17;;;;;;;16.15;7.30;;;;;;;11.08;88.20;102333.47;5028434;28;20021;-63
2022/01/01 09:09:43;;;;;;;14.80;7.13;;;;;;;11.08;87.95;102325.53;5023803;28;20487;-63
2022/01/01 09:12:09;;;;;;;16.90;7.03;;;;;;;11.09;88.65;102329.84;5026656;28;20502;-63
2022/01/01 09:14:35;;;;;;;17.67;7.13;;;;;;;11.07;88.51;102325.63;5024197;28;20038;-63
2022/01/01 09:17:02;;;;;;;19.45;7.30;;;;;;;11.05;88.28;102323.09;5027399;28;20079;-63
2022/01/01 09:19:27;;;;;;;17.55;7.28;;;;;;;11.07;87.91;102326.50;5022927;28;20049;-63
2022/01/01 09:21:52;;;;;;;19.50;7.68;;;;;;;11.07;88.35;102323.84;5024623;28;20028;-63
2022/01/01 09:24:18;;;;;;;16.75;7.57;;;;;;;11.08;88.43;102328.16;5026189;28;20040;-63
2022/01/01 09:26:43;;;;;;;16.80;7.72;;;;;;;11.08;87.79;102328.16;5022853;28;20411;-63
2022/01/01 09:29:10;;;;;;;16.48;7.28;;;;;;;11.08;88.76;102325.53;5025960;28;20470;-62
2022/01/01 09:31:38;;;;;;;19.42;7.68;;;;;;;11.05;87.64;102317.78;5024320;28;20471;-63
2022/01/01 09:34:03;;;;;;;16.67;7.43;;;;;;;11.08;88.24;102317.56;5028217;28;20021;-63
2022/01/01 09:36:29;;;;;;;18.00;7.70;;;;;;;11.07;88.48;102321.19;5023496;28;20030;-63
2022/01/01 09:38:54;;;;;;;18.92;7.93;;;;;;;11.08;88.34;102324.66;5027989;28;20451;-63
2022/01/01 09:41:19;;;;;;;17.17;7.60;;;;;;;11.08;88.30;102322.00;5027317;28;20032;-62
2022/01/01 09:43:44;;;;;;;15.43;7.22;;;;;;;11.08;88.33;102328.16;5023403;28;20376;-63
2022/01/01 09:46:13;;;;;;;16.92;7.50;;;;;;;11.05;87.95;102323.09;5023879;28;20030;-63
2022/01/01 09:48:38;;;;;;;18.15;8.23;;;;;;;11.06;88.34;102324.81;5023395;28;20507;-63
2022/01/01 09:51:04;;;;;;;18.60;7.68;;;;;;;11.05;88.30;102315.13;5019123;28;20033;-61
2022/01/01 09:53:31;;;;;;;16.80;7.97;;;;;;;11.02;88.11;102312.75;5023978;28;21543;-59
2022/01/01 09:55:57;;;;;;;16.38;7.95;;;;;;;11.05;88.35;102311.66;5024640;28;20489;-58
2022/01/01 09:58:28;;;;;;;17.67;7.40;;;;;;;11.01;87.89;102311.91;5024455;28;20021;-56
2022/01/01 10:00:54;;;;;;;15.85;7.30;;;;;;;11.04;87.67;102305.50;5023390;28;20044;-57
2022/01/01 10:03:45;;;;;;;16.08;7.22;;;;;;;11.06;88.09;102308.88;5020841;28;20347;-58
2022/01/01 10:06:16;;;;;;;16.10;7.00;;;;;;;11.03;88.54;102299.38;5023220;28;20034;-57
2022/01/01 10:08:45;;;;;;;15.13;7.35;;;;;;;11.06;88.34;102306.22;5020633;28;20132;-57
2022/01/01 10:11:10;;;;;;;16.60;7.53;;;;;;;11.05;88.54;102307.19;5022267;28;20079;-56
2022/01/01 10:13:38;;;;;;;15.05;7.60;;;;;;;11.03;88.31;102294.06;5026408;28;20053;-56
2022/01/01 10:16:07;;;;;;;17.40;7.55;;;;;;;11.04;88.36;102292.22;5023815;28;20025;-57
2022/01/01 10:18:37;;;;;;;16.90;7.78;;;;;;;11.05;88.21;102280.63;5020554;28;20433;-57
2022/01/01 10:21:08;;;;;;;16.38;7.57;;;;;;;11.07;88.31;102284.03;5019285;28;20127;-55
2022/01/01 10:23:34;;;;;;;15.27;7.15;;;;;;;11.07;88.25;102278.72;5023354;28;20036;-60
2022/01/01 10:29:07;;;;;;;17.75;7.95;;;;;;;11.11;88.23;102274.81;5024308;28;20036;-61
2022/01/01 10:31:33;;;;;;;14.90;7.20;;;;;;;11.11;88.86;102269.50;5030454;28;20150;-61
2022/01/01 10:33:59;;;;;;;16.00;7.40;;;;;;;11.11;88.43;102264.19;5031801;28;20030;-61
2022/01/01 10:36:24;;;;;;;17.05;7.38;;;;;;;11.13;88.27;102267.56;5031740;28;20037;-61
2022/01/01 10:38:50;;;;;;;14.88;7.45;;;;;;;11.15;88.60;102262.97;5032119;28;20072;-61
2022/01/01 10:41:17;;;;;;;16.40;7.53;;;;;;;11.20;88.50;102261.75;5029746;28;20060;-61
2022/01/01 10:43:44;;;;;;;18.30;7.72;;;;;;;11.22;87.99;102259.78;5032131;28;20033;-61
2022/01/01 10:46:13;;;;;;;16.98;7.35;;;;;;;11.26;87.70;102258.56;5031437;28;20029;-61
2022/01/01 10:48:52;;;;;;;19.83;10.20;;;;;;;11.29;88.02;102250.31;5031396;28;20076;-61
2022/01/01 10:51:19;;;;;;;25.60;12.98;;;;;;;11.35;88.09;102249.78;5028989;28;20151;-61
2022/01/01 10:53:44;;;;;;;20.27;10.75;;;;;;;11.39;87.68;102235.28;5030086;28;20029;-61
2022/01/01 10:56:18;;;;;;;13.82;6.95;;;;;;;11.46;87.60;102242.72;5023597;28;20387;-61
2022/01/01 10:58:43;;;;;;;14.13;6.40;;;;;;;11.46;87.79;102229.44;5026783;28;20398;-60
2022/01/01 11:01:09;;;;;;;19.52;8.73;;;;;;;11.47;87.81;102221.34;5028029;28;20045;-61
2022/01/01 11:03:37;;;;;;;17.83;8.20;;;;;;;11.42;87.73;102223.56;5025715;28;20109;-61
2022/01/01 11:06:05;;;;;;;14.13;7.35;;;;;;;11.47;87.41;102225.81;5029887;28;20108;-61
2022/01/01 11:08:31;;;;;;;15.10;6.50;;;;;;;11.47;86.91;102226.66;5027732;28;20087;-61
2022/01/01 11:10:58;;;;;;;12.95;6.35;;;;;;;11.47;87.33;102225.81;5027820;28;20049;-60
2022/01/01 11:13:23;;;;;;;12.73;6.07;;;;;;;11.50;87.25;102237.00;5024960;28;20040;-61
2022/01/01 11:15:50;;;;;;;12.93;5.93;;;;;;;11.47;87.13;102231.97;5030153;28;20022;-61
2022/01/01 11:18:17;;;;;;;14.50;6.80;;;;;;;11.51;87.57;102232.53;5027821;28;20052;-60